Sweek Hollow, Vermont
Current Conditions -  °F | °C
As of 12:35 AM on Monday 22 Dec 2014 (Local Time) from KFSO Reporting Station
Haze Haze  
Wind Chill: 19°   Ceiling: 2900
Heat Index: 19°   Visibility: 4mi
Dew Point: 18°   Wind: 0mph
Humidity: 93%   Direction: NA
Pressure: 30.38"   Gusts: NA
Location:  44.8776°N, 72.9201°W
Report Text: KFSO 220535Z AUTO 00000KT 4SM BR OVC029 M07/M08 A3038 RMK AO2 T10711080
Loading
Personal Weather Stations






























Interactive Weather Map New forecast layout! Learn more

10-Day Weather Forecast

Advertisements
Track Severe Weather on mobile